Time;durP1;ratioP1;P1;durP2;ratioP2;P2;SDS_P1;SDS_P2;PMS_P1;PMS_P2;Temp;Humidity;BMP_temperature;BMP_pressure;BME280_temperature;BME280_humidity;BME280_pressure;Samples;Min_cycle;Max_cycle;Signal;HPM_P1;HPM_P2
2022/01/10 00:01:08;;;;;;;30.00;13.05;;;;;;;1.06;96.51;100491.38;5020654;28;20050;-83
2022/01/10 00:07:41;;;;;;;22.33;12.65;;;;;;;0.88;96.91;100483.09;4944423;29;20115;-85
2022/01/10 00:13:16;;;;;;;27.58;13.48;;;;;;;0.74;97.28;100509.72;5007191;23;20453;-84
2022/01/10 00:15:46;;;;;;;31.15;12.43;;;;;;;0.62;97.68;100502.75;4985440;28;20049;-83
2022/01/10 00:18:23;;;;;;;30.40;13.77;;;;;;;0.55;97.56;100504.88;4983320;28;20073;-83
2022/01/10 00:21:20;;;;;;;29.63;12.70;;;;;;;0.56;97.66;100513.44;4991596;28;20425;-83
2022/01/10 00:23:50;;;;;;;26.85;13.55;;;;;;;0.55;97.89;100511.78;4967503;28;20050;-82
2022/01/10 00:26:25;;;;;;;22.02;12.73;;;;;;;0.48;97.92;100507.94;4966542;28;20053;-85
2022/01/10 00:29:05;;;;;;;34.15;13.05;;;;;;;0.40;98.11;100515.31;4960331;29;20047;-83
2022/01/10 00:34:52;;;;;;;25.25;12.88;;;;;;;0.43;97.98;100530.59;4946421;29;20059;-87
2022/01/10 00:38:06;;;;;;;33.25;13.63;;;;;;;0.26;98.23;100511.84;4960717;29;20055;-85
2022/01/10 00:41:00;;;;;;;30.50;13.65;;;;;;;0.38;98.04;100538.59;4924640;29;20424;-83
2022/01/10 00:43:50;;;;;;;31.63;14.32;;;;;;;0.20;98.34;100524.25;5016023;23;20050;-82
2022/01/10 00:46:24;;;;;;;27.33;12.95;;;;;;;0.25;98.10;100533.34;4981448;28;20050;-84
2022/01/10 00:49:00;;;;;;;34.95;14.90;;;;;;;0.12;98.70;100532.41;4985531;28;20057;-83
2022/01/10 00:51:32;;;;;;;28.33;13.75;;;;;;;0.22;98.71;100554.13;4999689;28;20122;-82
2022/01/10 00:54:03;;;;;;;21.85;13.23;;;;;;;0.15;98.33;100537.38;4999428;28;20052;-83
2022/01/10 00:57:11;;;;;;;34.58;13.85;;;;;;;0.18;98.47;100557.78;5006513;28;20054;-83
2022/01/10 01:00:00;;;;;;;24.85;13.95;;;;;;;0.16;98.52;100569.09;5002963;28;20057;-83
2022/01/10 01:02:41;;;;;;;34.13;14.40;;;;;;;0.03;99.02;100558.69;5004861;28;20054;-84
2022/01/10 01:08:11;;;;;;;37.80;14.57;;;;;;;0.07;98.57;100573.03;4999807;28;20054;-84
2022/01/10 01:14:36;;;;;;;;;;;;;;;;;;;;;
2022/01/10 01:26:23;;;;;;;34.15;14.35;;;;;;;-0.07;99.06;100615.03;4982080;28;20137;-88
2022/01/10 01:28:50;;;;;;;31.73;14.40;;;;;;;-0.17;98.97;100607.91;4981938;28;20058;-88
2022/01/10 01:31:20;;;;;;;31.40;14.18;;;;;;;-0.24;99.08;100598.91;4982465;28;20413;-87
2022/01/10 01:33:51;;;;;;;31.30;14.40;;;;;;;-0.19;99.28;100612.31;4982185;28;20059;-87
2022/01/10 01:36:25;;;;;;;39.17;14.90;;;;;;;-0.12;99.67;100617.03;4982731;28;20066;-88
2022/01/10 01:38:53;;;;;;;32.47;15.20;;;;;;;-0.06;99.65;100631.28;4982476;28;20051;-87
2022/01/10 01:41:35;;;;;;;34.50;14.73;;;;;;;0.06;99.90;100622.00;4982614;28;20512;-87
2022/01/10 01:44:05;;;;;;;37.08;14.90;;;;;;;0.00;99.40;100633.50;4981902;28;20054;-87
2022/01/10 01:46:36;;;;;;;34.63;14.68;;;;;;;-0.07;99.36;100625.31;4981314;28;20050;-88
2022/01/10 01:49:06;;;;;;;37.13;15.00;;;;;;;-0.12;99.64;100637.59;4981444;28;20050;-87
2022/01/10 01:51:34;;;;;;;36.88;15.13;;;;;;;0.03;99.25;100647.91;4981232;28;20054;-87
2022/01/10 01:54:02;;;;;;;31.25;14.80;;;;;;;0.10;99.24;100647.47;4982020;28;20142;-87
2022/01/10 01:56:28;;;;;;;36.83;15.13;;;;;;;0.25;99.61;100661.19;4981812;28;20051;-88
2022/01/10 01:58:56;;;;;;;33.40;15.70;;;;;;;0.16;99.79;100670.28;4981430;28;20055;-87
2022/01/10 02:01:24;;;;;;;42.65;17.08;;;;;;;0.03;99.58;100646.16;4981858;28;20067;-88
2022/01/10 02:03:53;;;;;;;39.65;16.50;;;;;;;0.01;99.44;100663.44;4982694;28;20065;-87
2022/01/10 02:06:20;;;;;;;32.88;16.27;;;;;;;0.21;99.54;100675.16;4981961;28;20051;-88
2022/01/10 02:08:51;;;;;;;28.80;14.60;;;;;;;0.11;99.45;100679.16;4980944;28;20055;-87
2022/01/10 02:11:18;;;;;;;33.33;15.48;;;;;;;0.18;99.86;100694.16;4981779;28;20051;-87
2022/01/10 02:13:46;;;;;;;31.80;15.80;;;;;;;0.03;99.94;100676.19;4981438;28;20074;-87
2022/01/10 02:16:19;;;;;;;39.08;15.52;;;;;;;-0.04;99.88;100670.59;4981686;28;20065;-87
2022/01/10 02:18:46;;;;;;;33.08;15.65;;;;;;;0.08;99.80;100685.31;4981182;28;20046;-87
2022/01/10 02:21:15;;;;;;;38.33;15.57;;;;;;;0.19;99.69;100703.53;4980396;28;20058;-86
2022/01/10 02:23:43;;;;;;;32.20;15.38;;;;;;;0.18;100.00;100707.03;4981357;28;20082;-88
2022/01/10 02:26:10;;;;;;;38.47;17.02;;;;;;;0.10;100.00;100692.94;4980508;28;20058;-87
2022/01/10 02:28:39;;;;;;;46.22;16.95;;;;;;;0.15;99.76;100693.50;4980747;28;20051;-88
2022/01/10 02:31:07;;;;;;;44.75;16.50;;;;;;;0.13;99.55;100708.22;4981013;28;20050;-88
2022/01/10 02:33:34;;;;;;;38.88;17.13;;;;;;;0.15;100.00;100727.78;4981162;28;20482;-87
2022/01/10 02:36:16;;;;;;;39.15;15.95;;;;;;;0.00;100.00;100702.97;4980324;28;20133;-86
2022/01/10 02:38:58;;;;;;;39.05;16.95;;;;;;;0.02;99.85;100720.84;4980857;28;20047;-87
2022/01/10 02:41:30;;;;;;;37.83;16.88;;;;;;;-0.01;100.00;100719.31;4980224;28;20114;-87
2022/01/10 02:44:01;;;;;;;44.03;17.02;;;;;;;0.22;100.00;100743.72;4979781;28;20525;-87
2022/01/10 02:46:36;;;;;;;44.65;16.80;;;;;;;0.16;100.00;100726.88;4979735;28;20043;-87
2022/01/10 02:49:08;;;;;;;48.08;17.58;;;;;;;0.18;100.00;100719.06;4980380;28;20125;-87
2022/01/10 02:51:36;;;;;;;39.20;16.47;;;;;;;0.34;99.69;100730.16;4980161;28;20050;-87
2022/01/10 02:54:14;;;;;;;33.53;16.23;;;;;;;0.15;99.91;100727.78;4980348;28;20073;-87
2022/01/10 02:56:52;;;;;;;41.97;16.95;;;;;;;0.22;99.78;100749.69;4980780;28;20057;-87
2022/01/10 02:59:22;;;;;;;33.47;15.32;;;;;;;0.16;99.51;100754.34;4980743;28;20074;-88
2022/01/10 03:01:58;;;;;;;38.65;16.60;;;;;;;0.05;99.75;100734.38;4981330;28;20042;-87
2022/01/10 03:04:25;;;;;;;29.67;15.23;;;;;;;0.02;100.00;100755.13;4981389;28;20089;-87
2022/01/10 03:06:54;;;;;;;33.65;16.38;;;;;;;0.07;99.57;100780.59;4980730;28;20070;-86
2022/01/10 03:09:24;;;;;;;42.33;15.63;;;;;;;-0.12;99.28;100757.66;4980354;28;20051;-86
2022/01/10 03:11:52;;;;;;;30.95;15.85;;;;;;;-0.09;100.00;100775.50;4980042;28;20073;-87
2022/01/10 03:14:21;;;;;;;35.13;15.52;;;;;;;-0.24;99.58;100773.75;4979352;28;20047;-87
2022/01/10 03:16:51;;;;;;;37.30;15.45;;;;;;;-0.24;100.00;100777.16;4980022;28;20050;-87
2022/01/10 03:19:20;;;;;;;34.78;17.02;;;;;;;-0.10;100.00;100772.09;4980742;28;20058;-87
2022/01/10 03:21:55;;;;;;;35.35;15.63;;;;;;;-0.09;100.00;100802.03;4981269;28;20051;-87
2022/01/10 03:24:23;;;;;;;29.55;15.18;;;;;;;-0.24;99.97;100790.00;4981739;28;20050;-87
2022/01/10 03:26:53;;;;;;;34.58;15.60;;;;;;;-0.28;99.61;100775.66;4990420;28;20039;-87
2022/01/10 03:29:20;;;;;;;39.42;15.07;;;;;;;-0.13;100.00;100802.28;4997244;28;20031;-87
2022/01/10 03:31:47;;;;;;;33.80;14.63;;;;;;;-0.41;100.00;100788.34;4997486;28;20062;-86
2022/01/10 03:34:17;;;;;;;36.92;15.18;;;;;;;-0.25;100.00;100821.78;4987647;28;20425;-87
2022/01/10 03:36:46;;;;;;;30.98;15.57;;;;;;;-0.46;100.00;100816.03;4984584;28;20073;-86
2022/01/10 03:39:15;;;;;;;33.00;15.15;;;;;;;-0.40;100.00;100823.44;4984926;28;20053;-87
2022/01/10 03:41:43;;;;;;;34.67;14.60;;;;;;;-0.41;100.00;100797.78;4984657;28;20059;-87
2022/01/10 03:44:13;;;;;;;37.25;15.60;;;;;;;-0.21;100.00;100827.59;4983626;28;20122;-86
2022/01/10 03:46:40;;;;;;;30.48;14.85;;;;;;;-0.51;100.00;100794.91;4983022;28;20089;-86
2022/01/10 03:49:13;;;;;;;34.53;15.65;;;;;;;-0.46;100.00;100816.03;4983953;28;20105;-87
2022/01/10 03:51:40;;;;;;;30.98;14.13;;;;;;;-0.58;100.00;100818.44;4983488;28;20062;-88
2022/01/10 03:54:09;;;;;;;32.35;13.55;;;;;;;-0.76;100.00;100804.81;4983052;28;20066;-87
2022/01/10 03:56:36;;;;;;;30.65;13.70;;;;;;;-0.75;100.00;100816.75;4983638;28;20051;-87
2022/01/10 03:59:04;;;;;;;34.03;13.95;;;;;;;-0.79;100.00;100816.06;4983535;28;20042;-87
2022/01/10 04:01:37;;;;;;;35.60;14.68;;;;;;;-0.72;100.00;100826.88;4983542;28;20051;-87
2022/01/10 04:04:16;;;;;;;29.90;14.73;;;;;;;-0.81;100.00;100828.16;4983994;28;20042;-87
2022/01/10 04:06:56;;;;;;;39.78;14.93;;;;;;;-0.90;100.00;100814.97;4982802;28;20069;-87
2022/01/10 04:09:23;;;;;;;35.55;13.85;;;;;;;-0.94;100.00;100831.44;4983042;28;20051;-87
2022/01/10 04:11:59;;;;;;;29.83;14.23;;;;;;;-0.96;100.00;100838.41;4983785;28;20069;-86
2022/01/10 04:14:30;;;;;;;33.80;14.43;;;;;;;-0.80;100.00;100870.09;4983586;28;20062;-87
2022/01/10 04:17:03;;;;;;;28.27;13.65;;;;;;;-0.85;100.00;100864.38;4983629;28;20046;-87
2022/01/10 04:19:34;;;;;;;30.42;13.52;;;;;;;-0.80;100.00;100875.25;4983103;28;20059;-87
2022/01/10 04:22:11;;;;;;;26.73;14.38;;;;;;;-0.90;100.00;100858.63;4981777;28;20138;-87
2022/01/10 04:24:47;;;;;;;31.17;13.48;;;;;;;-1.02;100.00;100865.22;4982902;28;20109;-86
2022/01/10 04:27:24;;;;;;;25.45;12.70;;;;;;;-0.89;100.00;100898.81;4982955;28;20437;-87
2022/01/10 04:29:55;;;;;;;30.73;14.35;;;;;;;-1.02;100.00;100884.03;4982578;28;20058;-86
2022/01/10 04:32:32;;;;;;;26.23;13.40;;;;;;;-0.99;100.00;100902.78;4983242;28;20047;-86
2022/01/10 04:35:01;;;;;;;28.30;13.50;;;;;;;-1.11;100.00;100889.63;4983931;28;20055;-86
2022/01/10 04:40:13;;;;;;;32.95;13.95;;;;;;;-1.02;100.00;100902.03;4969317;28;20066;-87
2022/01/10 04:43:04;;;;;;;29.95;13.57;;;;;;;-0.88;100.00;100903.88;4982588;28;20105;-87
2022/01/10 04:46:03;;;;;;;31.23;14.00;;;;;;;-0.80;100.00;100916.34;4982199;28;20121;-86
2022/01/10 04:48:36;;;;;;;33.60;14.15;;;;;;;-0.61;100.00;100932.53;4983251;28;20119;-87
2022/01/10 04:56:30;;;;;;;27.83;13.77;;;;;;;-0.46;100.00;100943.75;4983533;28;20063;-87
2022/01/10 04:59:00;;;;;;;26.73;13.55;;;;;;;-0.42;100.00;100953.78;4983227;28;20058;-87
2022/01/10 05:01:35;;;;;;;27.38;13.80;;;;;;;-0.42;100.00;100942.69;4982961;28;20302;-86
2022/01/10 05:04:11;;;;;;;27.77;14.15;;;;;;;-0.27;100.00;100957.31;4983535;28;20061;-87
2022/01/10 05:06:42;;;;;;;31.15;13.60;;;;;;;-0.34;100.00;100959.38;4982609;28;20688;-86
2022/01/10 05:09:16;;;;;;;27.30;13.38;;;;;;;-0.15;100.00;100986.72;4982619;28;20070;-86
2022/01/10 05:11:51;;;;;;;32.35;14.15;;;;;;;-0.12;100.00;100991.72;4983905;28;20069;-86
2022/01/10 05:14:24;;;;;;;25.63;14.05;;;;;;;-0.15;100.00;100982.41;4983401;28;20075;-87
2022/01/10 05:16:52;;;;;;;29.92;14.57;;;;;;;-0.11;100.00;101003.69;4983788;28;20055;-86
2022/01/10 05:19:22;;;;;;;40.90;14.18;;;;;;;-0.18;100.00;100992.88;4983627;28;20134;-87
2022/01/10 05:22:02;;;;;;;31.88;14.55;;;;;;;-0.08;100.00;101019.78;4982997;28;20034;-87
2022/01/10 05:24:34;;;;;;;33.00;14.38;;;;;;;-0.20;100.00;100996.41;4983854;28;20131;-86
2022/01/10 05:27:04;;;;;;;31.27;14.13;;;;;;;-0.01;100.00;100999.72;4982628;28;20061;-87
2022/01/10 05:29:34;;;;;;;27.25;14.25;;;;;;;-0.01;100.00;101010.00;4982160;28;20059;-86
2022/01/10 05:32:06;;;;;;;24.40;13.50;;;;;;;-0.01;100.00;101010.00;4984070;28;20047;-86
2022/01/10 05:34:33;;;;;;;30.27;13.45;;;;;;;0.18;100.00;101040.75;4984389;28;20051;-87
2022/01/10 05:36:59;;;;;;;28.85;13.45;;;;;;;0.09;100.00;101034.34;4982526;28;20050;-87
2022/01/10 05:39:26;;;;;;;37.50;13.50;;;;;;;0.18;100.00;101051.88;4983026;28;20057;-87
2022/01/10 05:41:53;;;;;;;35.20;14.57;;;;;;;0.04;100.00;101023.44;4982907;28;20087;-87
2022/01/10 05:44:27;;;;;;;31.60;13.88;;;;;;;0.22;100.00;101040.50;4982059;28;20046;-87
2022/01/10 05:46:54;;;;;;;30.77;13.30;;;;;;;0.02;99.57;101045.00;4981571;28;20057;-87
2022/01/10 05:49:26;;;;;;;29.55;12.70;;;;;;;-0.06;99.86;101045.44;4981029;28;20051;-87
2022/01/10 05:51:53;;;;;;;25.30;12.63;;;;;;;-0.03;99.56;101063.28;4982111;28;20055;-88
2022/01/10 05:54:29;;;;;;;25.90;13.35;;;;;;;0.03;99.57;101065.53;4982271;28;20486;-87
2022/01/10 05:56:57;;;;;;;23.75;12.50;;;;;;;0.03;99.81;101065.53;4981746;28;20086;-87
2022/01/10 05:59:32;;;;;;;30.65;12.55;;;;;;;0.03;99.48;101073.22;4981274;28;20046;-88
2022/01/10 06:02:01;;;;;;;27.20;12.60;;;;;;;-0.03;99.71;101081.28;4981801;28;20058;-87
2022/01/10 06:04:38;;;;;;;27.77;12.48;;;;;;;0.00;100.00;101099.94;4982353;28;20123;-88
2022/01/10 06:07:05;;;;;;;31.45;13.32;;;;;;;0.10;99.93;101117.50;4982803;28;20051;-88
2022/01/10 06:09:35;;;;;;;32.38;13.75;;;;;;;0.17;100.00;101129.16;4982095;28;20055;-88
2022/01/10 06:12:08;;;;;;;28.67;12.40;;;;;;;0.07;99.48;101128.78;4982810;28;20047;-87
2022/01/10 06:14:35;;;;;;;22.48;11.85;;;;;;;-0.04;99.39;101113.06;4982054;28;20054;-87
2022/01/10 06:17:04;;;;;;;28.30;13.35;;;;;;;0.06;99.99;101134.84;4980681;28;20051;-86
2022/01/10 06:19:34;;;;;;;27.42;12.10;;;;;;;-0.01;100.00;101120.63;4982162;28;20046;-86
2022/01/10 06:22:02;;;;;;;25.73;12.95;;;;;;;0.02;100.00;101127.34;4981418;28;20102;-88
2022/01/10 06:24:33;;;;;;;28.60;12.40;;;;;;;0.03;99.57;101145.28;4981777;28;20403;-86
2022/01/10 06:27:07;;;;;;;28.13;13.30;;;;;;;0.13;99.66;101161.94;4982075;28;20055;-86
2022/01/10 06:29:43;;;;;;;33.30;12.88;;;;;;;0.12;99.65;101169.72;4981920;28;20050;-87
2022/01/10 06:32:13;;;;;;;22.90;12.43;;;;;;;0.11;99.55;101168.06;4981432;28;20062;-87
2022/01/10 06:34:42;;;;;;;26.73;12.88;;;;;;;0.07;99.54;101171.69;4982759;28;20416;-87
2022/01/10 06:37:25;;;;;;;27.08;13.23;;;;;;;0.00;99.60;101161.69;4982880;28;20462;-87
2022/01/10 06:39:52;;;;;;;33.25;13.52;;;;;;;0.02;99.73;101163.38;4980841;28;20058;-88
2022/01/10 06:44:52;;;;;;;28.60;13.02;;;;;;;0.19;99.70;101199.41;5066641;23;20054;-80
2022/01/10 06:47:18;;;;;;;26.73;12.77;;;;;;;0.18;99.83;101201.13;4998774;28;20137;-80
2022/01/10 06:49:46;;;;;;;33.38;13.80;;;;;;;0.21;99.50;101206.13;4995996;28;20141;-81
2022/01/10 06:52:13;;;;;;;33.47;15.13;;;;;;;0.20;99.54;101204.47;4997153;28;20093;-80
2022/01/10 06:54:40;;;;;;;24.65;13.40;;;;;;;0.23;99.15;101204.31;4998769;28;20050;-79
2022/01/10 06:57:07;;;;;;;30.05;13.45;;;;;;;0.13;99.18;101197.97;5008933;23;20044;-78
2022/01/10 06:59:34;;;;;;;27.70;13.75;;;;;;;0.24;99.47;101220.59;4996037;28;20061;-80
2022/01/10 07:02:01;;;;;;;29.27;14.68;;;;;;;0.18;99.11;101208.03;4998931;28;20046;-80
2022/01/10 07:04:44;;;;;;;32.53;13.75;;;;;;;0.21;99.38;101229.28;4985810;28;20086;-80
2022/01/10 07:07:14;;;;;;;26.48;14.32;;;;;;;0.21;99.62;101228.47;4978798;28;20051;-80
2022/01/10 07:09:41;;;;;;;32.58;13.05;;;;;;;0.16;99.70;101231.25;4982514;28;20058;-81
2022/01/10 07:12:22;;;;;;;32.55;14.27;;;;;;;0.04;99.56;101231.03;4982373;28;20058;-81
2022/01/10 07:14:51;;;;;;;28.00;13.98;;;;;;;0.14;99.78;101245.94;4986026;28;20059;-82
2022/01/10 07:17:18;;;;;;;32.03;14.00;;;;;;;0.22;99.63;101258.44;4985152;28;20054;-81
2022/01/10 07:19:45;;;;;;;34.00;15.10;;;;;;;0.15;99.33;101239.88;4959798;28;20498;-81
2022/01/10 07:22:13;;;;;;;35.22;14.48;;;;;;;0.29;99.14;101278.66;4966030;28;20055;-81
2022/01/10 07:24:39;;;;;;;30.25;14.52;;;;;;;0.19;99.40;101263.75;4977896;28;20123;-81
2022/01/10 07:27:06;;;;;;;33.72;14.38;;;;;;;0.27;99.62;101288.19;4963087;29;20051;-82
2022/01/10 07:29:33;;;;;;;27.40;13.88;;;;;;;0.40;99.64;101297.91;4965546;29;20043;-82
2022/01/10 07:32:00;;;;;;;29.63;13.98;;;;;;;0.31;99.39;101279.44;4956694;28;20043;-82
2022/01/10 07:34:29;;;;;;;29.95;14.13;;;;;;;0.48;99.50;101298.34;4963422;29;20078;-82
2022/01/10 07:36:56;;;;;;;37.67;14.73;;;;;;;0.22;98.95;101287.59;4963287;29;20562;-82
2022/01/10 07:39:24;;;;;;;25.55;13.65;;;;;;;0.18;99.13;101298.94;4961192;29;20130;-83
2022/01/10 07:41:51;;;;;;;29.95;13.75;;;;;;;0.22;99.85;101290.16;4971014;29;20078;-83
2022/01/10 07:44:21;;;;;;;30.40;14.45;;;;;;;0.31;99.30;101325.75;4977369;28;20051;-81
2022/01/10 07:46:47;;;;;;;31.67;15.13;;;;;;;0.26;98.85;101332.03;4979043;28;20038;-82
2022/01/10 07:49:14;;;;;;;27.38;13.95;;;;;;;0.19;99.32;101322.94;4970382;29;20078;-82
2022/01/10 07:51:41;;;;;;;29.25;14.07;;;;;;;0.24;99.07;101321.81;4964978;28;20082;-81
2022/01/10 07:54:08;;;;;;;26.38;13.90;;;;;;;0.23;99.28;101325.28;4963632;28;20098;-83
2022/01/10 07:56:38;;;;;;;30.85;14.55;;;;;;;0.15;98.60;101318.84;4967959;28;20062;-81
2022/01/10 07:59:05;;;;;;;30.52;14.13;;;;;;;0.32;98.28;101349.75;4969266;29;20494;-80
2022/01/10 08:01:32;;;;;;;30.17;14.10;;;;;;;0.16;98.17;101344.50;4970365;28;20078;-81
2022/01/10 08:04:02;;;;;;;28.58;12.82;;;;;;;0.09;98.78;101353.41;4965418;29;20047;-81
2022/01/10 08:06:29;;;;;;;26.63;12.88;;;;;;;-0.06;98.94;101336.13;4964742;29;20051;-82
2022/01/10 08:08:58;;;;;;;30.13;13.40;;;;;;;0.04;98.74;101352.78;4970080;29;20047;-80
2022/01/10 08:11:28;;;;;;;26.67;12.95;;;;;;;0.06;98.77;101361.28;4947754;29;20083;-81
2022/01/10 08:14:03;;;;;;;30.08;12.93;;;;;;;0.23;98.51;101378.50;4951531;29;20094;-80
2022/01/10 08:30:05;;;;;;;30.35;13.05;;;;;;;0.57;98.92;101399.16;4608213;27;15193030;-86
2022/01/10 08:32:32;;;;;;;25.23;15.48;;;;;;;0.60;99.00;101418.78;5123733;28;20048;-81
2022/01/10 08:34:58;;;;;;;32.55;15.52;;;;;;;0.56;99.02;101423.25;5115075;28;20147;-82
2022/01/10 08:37:25;;;;;;;28.17;13.50;;;;;;;0.54;98.72;101429.38;5114583;28;20320;-81
2022/01/10 08:39:52;;;;;;;30.13;13.63;;;;;;;0.47;98.54;101434.00;5114490;28;20486;-81
2022/01/10 08:44:49;;;;;;;30.25;16.08;;;;;;;0.51;98.37;101437.25;5047238;28;20053;-81
2022/01/10 08:47:19;;;;;;;29.92;14.30;;;;;;;0.50;98.84;101443.31;5053133;28;20045;-81
2022/01/10 08:49:51;;;;;;;31.52;14.50;;;;;;;0.52;97.98;101447.47;5053561;28;20479;-82
2022/01/10 08:52:18;;;;;;;26.23;13.63;;;;;;;0.65;98.00;101452.91;5050579;28;20115;-81
2022/01/10 08:54:46;;;;;;;26.85;14.73;;;;;;;0.62;97.50;101456.44;5034223;28;20057;-82
2022/01/10 08:57:13;;;;;;;31.30;14.52;;;;;;;0.51;97.56;101444.97;5035345;28;20045;-81
2022/01/10 08:59:40;;;;;;;32.10;15.02;;;;;;;0.44;96.87;101434.16;5039590;28;20042;-81
2022/01/10 09:02:11;;;;;;;32.92;15.27;;;;;;;0.60;96.96;101460.00;5033443;28;20053;-82
2022/01/10 09:04:39;;;;;;;26.85;14.48;;;;;;;0.46;97.26;101440.06;5034455;28;20060;-83
2022/01/10 09:07:08;;;;;;;34.67;15.10;;;;;;;0.63;97.13;101470.16;5034489;28;20050;-81
2022/01/10 09:09:35;;;;;;;32.30;15.18;;;;;;;0.66;96.97;101468.28;5034165;28;20068;-81
2022/01/10 09:12:01;;;;;;;34.75;15.73;;;;;;;0.71;97.07;101470.63;5035174;28;20056;-79
2022/01/10 09:14:28;;;;;;;28.88;15.07;;;;;;;0.78;97.05;101482.31;5034796;28;20133;-81
2022/01/10 09:16:55;;;;;;;24.20;15.07;;;;;;;0.81;97.07;101484.75;5031776;28;20188;-81
2022/01/10 09:19:21;;;;;;;32.53;16.02;;;;;;;0.90;97.21;101489.47;5031911;28;20065;-81
2022/01/10 09:21:50;;;;;;;65.10;19.13;;;;;;;0.96;97.06;101489.16;5031289;28;20117;-81
2022/01/10 09:24:16;;;;;;;50.10;17.42;;;;;;;1.00;97.02;101498.41;5031500;28;20077;-82
2022/01/10 09:26:43;;;;;;;59.88;17.17;;;;;;;1.05;96.68;101503.34;5031677;28;20109;-81
2022/01/10 09:29:10;;;;;;;43.03;17.73;;;;;;;1.12;97.17;101503.91;5029038;28;20483;-82
2022/01/10 09:31:38;;;;;;;34.85;16.42;;;;;;;1.17;96.96;101513.06;5019019;28;20074;-82
2022/01/10 09:34:05;;;;;;;33.05;14.70;;;;;;;1.36;96.39;101507.88;5018845;28;20116;-81
2022/01/10 09:36:34;;;;;;;31.27;16.23;;;;;;;1.33;96.12;101508.84;5019197;28;20100;-81
2022/01/10 09:39:03;;;;;;;28.75;15.55;;;;;;;1.45;96.20;101516.88;5019336;28;20054;-80
2022/01/10 09:41:38;;;;;;;38.13;16.23;;;;;;;1.49;96.02;101523.53;5018290;28;20050;-81
2022/01/10 09:44:09;;;;;;;23.52;14.88;;;;;;;1.51;96.25;101522.56;5017820;28;20049;-82
2022/01/10 09:46:40;;;;;;;36.20;17.38;;;;;;;1.46;95.52;101524.53;5016923;28;20045;-82
2022/01/10 09:49:06;;;;;;;30.65;15.98;;;;;;;1.51;94.63;101524.31;5017435;28;20064;-82
2022/01/10 09:51:33;;;;;;;30.27;15.68;;;;;;;1.58;95.15;101518.75;5016191;28;20133;-81
2022/01/10 09:54:03;;;;;;;32.95;15.98;;;;;;;1.65;94.67;101524.47;5016991;28;20046;-82
2022/01/10 09:56:33;;;;;;;44.45;16.58;;;;;;;1.60;94.27;101534.16;5021531;28;20136;-83
2022/01/10 09:59:01;;;;;;;35.55;17.15;;;;;;;1.76;94.03;101531.66;5022901;28;20069;-83
2022/01/10 10:04:51;;;;;;;36.25;17.05;;;;;;;1.71;94.62;101518.16;5083737;22;20079;-81
2022/01/10 10:07:21;;;;;;;32.88;16.65;;;;;;;1.78;94.70;101529.84;5060606;28;20053;-81
2022/01/10 10:09:57;;;;;;;33.88;16.90;;;;;;;1.94;94.79;101548.78;5060769;28;20055;-81
2022/01/10 10:12:39;;;;;;;33.75;16.27;;;;;;;2.12;94.29;101567.66;5060888;28;20057;-82
2022/01/10 10:15:08;;;;;;;34.95;16.58;;;;;;;2.20;94.57;101579.25;5061196;28;20049;-82
2022/01/10 10:17:38;;;;;;;36.30;16.23;;;;;;;2.10;92.83;101572.06;5113407;22;20088;-82
2022/01/10 10:20:09;;;;;;;34.72;16.45;;;;;;;2.16;92.94;101577.75;5027607;28;20046;-82
2022/01/10 10:22:39;;;;;;;33.83;15.80;;;;;;;2.33;92.88;101588.06;5021863;28;20038;-84
2022/01/10 10:25:09;;;;;;;30.20;16.33;;;;;;;2.37;92.21;101590.44;5021657;28;20069;-83
2022/01/10 10:27:37;;;;;;;42.83;24.05;;;;;;;2.48;92.68;101588.13;5020806;28;20073;-82
2022/01/10 10:30:08;;;;;;;39.53;23.77;;;;;;;2.54;92.89;101593.00;5022126;28;20045;-82
2022/01/10 10:32:35;;;;;;;38.38;18.35;;;;;;;2.63;92.13;101587.34;5022388;28;20081;-82
2022/01/10 10:35:04;;;;;;;33.50;17.38;;;;;;;2.70;92.30;101588.69;5022282;28;20085;-81
2022/01/10 10:37:31;;;;;;;30.42;14.93;;;;;;;2.86;90.97;101594.66;5021292;28;20118;-82
2022/01/10 10:39:58;;;;;;;36.10;16.60;;;;;;;2.83;90.82;101592.28;5021555;28;20046;-82
2022/01/10 10:42:29;;;;;;;33.47;15.35;;;;;;;2.85;91.53;101599.91;5020507;28;20065;-82
2022/01/10 10:44:56;;;;;;;36.15;16.58;;;;;;;2.88;91.47;101608.34;5022277;28;20090;-83
2022/01/10 10:47:27;;;;;;;34.10;14.75;;;;;;;2.96;91.29;101601.00;5020709;28;20050;-82
2022/01/10 10:49:58;;;;;;;30.85;15.65;;;;;;;3.04;90.69;101597.19;5021445;28;20050;-82
2022/01/10 10:52:32;;;;;;;28.52;14.77;;;;;;;3.11;91.17;101598.53;5022133;28;20057;-80
2022/01/10 10:55:03;;;;;;;32.47;15.05;;;;;;;3.18;89.61;101610.19;5021910;28;20046;-82
2022/01/10 10:57:32;;;;;;;28.63;14.05;;;;;;;3.29;89.19;101603.50;5020724;28;20069;-82
2022/01/10 11:00:00;;;;;;;31.17;14.48;;;;;;;3.40;89.06;101613.25;5021559;28;20046;-82
2022/01/10 11:02:27;;;;;;;30.23;15.15;;;;;;;3.45;88.45;101612.97;5025601;28;20073;-83
2022/01/10 11:04:54;;;;;;;30.92;15.13;;;;;;;3.52;88.88;101617.72;5023727;28;20077;-82
2022/01/10 11:07:23;;;;;;;35.92;16.23;;;;;;;3.50;89.11;101632.50;5022130;28;20053;-82
2022/01/10 11:09:51;;;;;;;64.75;37.28;;;;;;;3.46;89.21;101625.84;5020818;28;20050;-82
2022/01/10 11:12:22;;;;;;;36.80;16.20;;;;;;;3.58;88.82;101632.09;5022195;28;20105;-81
2022/01/10 11:14:52;;;;;;;41.25;18.48;;;;;;;3.57;89.08;101636.44;5021863;28;20057;-82
2022/01/10 11:17:20;;;;;;;34.22;16.90;;;;;;;3.61;89.62;101635.34;5024948;28;20133;-83
2022/01/10 11:20:09;;;;;;;32.85;16.45;;;;;;;3.77;88.15;101644.81;5025694;28;20077;-82
2022/01/10 11:22:38;;;;;;;31.65;15.45;;;;;;;3.75;88.61;101641.50;5024959;28;20053;-82
2022/01/10 11:25:19;;;;;;;37.83;15.63;;;;;;;3.78;87.74;101639.53;5023784;28;20110;-84
2022/01/10 11:27:47;;;;;;;37.53;17.38;;;;;;;3.87;87.62;101648.53;5021675;28;20510;-82
2022/01/10 11:30:28;;;;;;;44.45;17.13;;;;;;;3.91;87.85;101647.44;5020575;28;20124;-83
2022/01/10 11:32:57;;;;;;;33.20;15.93;;;;;;;3.89;87.74;101646.69;5019430;28;20049;-82
2022/01/10 11:35:27;;;;;;;33.50;16.05;;;;;;;3.87;87.76;101643.34;5017766;28;20058;-82
2022/01/10 11:37:54;;;;;;;33.50;16.23;;;;;;;3.86;87.30;101644.28;5017926;28;20080;-82
2022/01/10 11:40:21;;;;;;;42.90;16.55;;;;;;;4.12;86.62;101659.16;5018614;28;20073;-82
2022/01/10 11:42:54;;;;;;;31.13;16.63;;;;;;;4.00;87.48;101654.69;5017520;28;20096;-82
2022/01/10 11:45:20;;;;;;;40.00;18.08;;;;;;;4.06;87.02;101659.50;5018156;28;20115;-80
2022/01/10 11:48:17;;;;;;;39.92;17.23;;;;;;;4.11;86.57;101657.47;5018187;28;20060;-84
2022/01/10 11:50:46;;;;;;;33.67;18.02;;;;;;;4.19;86.82;101649.28;5019663;28;20093;-82
2022/01/10 11:53:16;;;;;;;31.98;16.58;;;;;;;4.24;86.27;101655.84;5018730;28;20133;-82
2022/01/10 11:55:45;;;;;;;32.45;15.25;;;;;;;4.32;85.16;101661.38;5019156;28;20054;-82
2022/01/10 11:58:17;;;;;;;38.15;17.92;;;;;;;4.28;85.63;101654.72;5019177;28;20049;-81
2022/01/10 12:00:44;;;;;;;37.70;19.10;;;;;;;4.38;86.44;101659.34;5019568;28;20112;-80
2022/01/10 12:03:11;;;;;;;36.40;17.23;;;;;;;4.33;85.93;101665.66;5020595;28;20110;-82
2022/01/10 12:05:40;;;;;;;40.72;18.25;;;;;;;4.40;84.76;101673.06;5020409;28;20129;-82
2022/01/10 12:08:08;;;;;;;40.75;17.75;;;;;;;4.42;84.91;101674.63;5020978;28;20057;-82
2022/01/10 12:10:35;;;;;;;37.80;17.65;;;;;;;4.40;86.28;101671.31;5021118;28;20460;-83
2022/01/10 12:13:05;;;;;;;36.88;18.38;;;;;;;4.41;85.62;101679.91;5020632;28;20080;-82
2022/01/10 12:15:34;;;;;;;36.88;19.80;;;;;;;4.51;85.48;101688.81;5020843;28;20502;-81
2022/01/10 12:18:01;;;;;;;46.45;20.52;;;;;;;4.57;85.47;101698.81;5018756;28;20050;-81
2022/01/10 12:20:28;;;;;;;40.75;21.48;;;;;;;4.63;85.03;101693.28;5020802;28;20042;-80
2022/01/10 12:22:57;;;;;;;41.45;21.88;;;;;;;4.60;85.16;101696.03;5022600;28;20084;-80
2022/01/10 12:25:24;;;;;;;41.15;21.77;;;;;;;4.54;84.73;101699.00;5023340;28;20133;-80
2022/01/10 12:27:53;;;;;;;42.92;21.00;;;;;;;4.65;84.04;101705.22;5023892;28;20069;-80